Marlow, Oklahoma
Current Conditions -  °F | °C
As of 12:15 PM on Thursday 29 Jan 2015 (Local Time) from KDUC Reporting Station
Scattered Clouds Scattered Clouds  
Wind Chill: 54°   Ceiling: Unl
Heat Index: 54°   Visibility: 10mi
Dew Point: 34°   Wind: 23mph
Humidity: 47%   Direction: 10°N
Pressure: 30.4"   Gusts: 28mph
Location:  34.65°N, 97.96°W
Report Text: KDUC 291815Z AUTO 01020G24KT 10SM SCT120 12/01 A3040 RMK AO2
Loading
Personal Weather Stations






























Interactive Weather Map New forecast layout! Learn more

10-Day Weather Forecast

Advertisements
Track Severe Weather on mobile